createdAt,value
2017-12-19T00:00:36.848Z,108.63
2017-12-19T00:03:06.225Z,115.88
2017-12-19T00:05:33.265Z,112.65
2017-12-19T00:07:59.592Z,120.07
2017-12-19T00:10:26.894Z,117.68
2017-12-19T00:12:53.185Z,107.70
2017-12-19T00:15:19.406Z,109.20
2017-12-19T00:17:45.663Z,106.93
2017-12-19T00:20:11.963Z,105.63
2017-12-19T00:22:38.183Z,110.68
2017-12-19T00:25:04.418Z,122.60
2017-12-19T00:27:30.661Z,104.68
2017-12-19T00:29:56.971Z,104.03
2017-12-19T00:32:23.213Z,109.95
2017-12-19T00:34:49.456Z,109.55
2017-12-19T00:37:15.714Z,115.07
2017-12-19T00:39:41.942Z,103.00
2017-12-19T00:42:08.312Z,98.12
2017-12-19T00:44:34.546Z,96.03
2017-12-19T00:47:01.594Z,114.15
2017-12-19T00:49:27.834Z,104.82
2017-12-19T00:51:54.102Z,99.70
2017-12-19T00:54:21.098Z,99.70
2017-12-19T00:56:47.380Z,84.53
2017-12-19T00:59:13.653Z,97.68
2017-12-19T01:01:39.964Z,88.70
2017-12-19T01:04:06.213Z,96.25
2017-12-19T01:06:32.472Z,95.95
2017-12-19T01:08:58.728Z,92.20
2017-12-19T01:11:24.992Z,87.68
2017-12-19T01:13:51.345Z,105.10
2017-12-19T01:16:17.585Z,101.12
2017-12-19T01:18:44.533Z,114.45
2017-12-19T01:21:10.818Z,111.60
2017-12-19T01:23:37.085Z,129.95
2017-12-19T01:26:03.329Z,134.25
2017-12-19T01:28:29.676Z,125.97
2017-12-19T01:30:56.312Z,118.72
2017-12-19T01:33:22.559Z,131.20
2017-12-19T01:35:49.514Z,144.43
2017-12-19T01:38:15.766Z,139.12
2017-12-19T01:40:42.009Z,143.87
2017-12-19T01:43:08.225Z,145.18
2017-12-19T01:45:34.537Z,126.10
2017-12-19T01:48:00.785Z,113.30
2017-12-19T01:50:27.045Z,120.87
2017-12-19T01:52:53.290Z,117.95
2017-12-19T01:55:19.512Z,105.07
2017-12-19T01:57:45.804Z,106.22
2017-12-19T02:00:12.982Z,108.75
2017-12-19T02:02:39.213Z,101.70
2017-12-19T02:05:05.742Z,113.20
2017-12-19T02:07:31.965Z,117.80
2017-12-19T02:09:58.205Z,116.18
2017-12-19T02:12:24.497Z,117.07
2017-12-19T02:14:50.732Z,117.37
2017-12-19T02:17:16.957Z,103.30
2017-12-19T02:19:43.197Z,111.40
2017-12-19T02:22:09.434Z,104.45
2017-12-19T02:24:35.680Z,105.68
2017-12-19T02:27:02.473Z,113.70
2017-12-19T02:29:29.550Z,98.78
2017-12-19T02:31:55.799Z,106.47
2017-12-19T02:34:22.041Z,98.55
2017-12-19T02:36:48.329Z,101.30
2017-12-19T02:39:14.628Z,113.43
2017-12-19T02:41:41.673Z,116.20
2017-12-19T02:44:07.944Z,108.75
2017-12-19T02:46:34.193Z,118.45
2017-12-19T02:49:00.542Z,115.88
2017-12-19T02:51:26.785Z,105.70
2017-12-19T02:53:53.047Z,123.20
2017-12-19T02:56:20.073Z,120.28
2017-12-19T02:58:47.046Z,105.00
2017-12-19T03:01:13.285Z,127.32
2017-12-19T03:03:39.525Z,110.03
2017-12-19T03:06:05.742Z,101.32
2017-12-19T03:08:31.970Z,124.68
2017-12-19T03:10:58.209Z,116.35
2017-12-19T03:13:24.468Z,101.18
2017-12-19T03:15:50.725Z,119.87
2017-12-19T03:18:16.997Z,110.00
2017-12-19T03:20:43.219Z,117.03
2017-12-19T03:23:09.497Z,127.38
2017-12-19T03:25:35.777Z,121.75
2017-12-19T03:28:02.017Z,113.90
2017-12-19T03:30:28.254Z,117.82
2017-12-19T03:32:54.505Z,116.28
2017-12-19T03:35:20.782Z,114.80
2017-12-19T03:37:46.992Z,116.03
2017-12-19T03:40:13.242Z,138.37
2017-12-19T03:42:39.468Z,137.07
2017-12-19T03:45:05.764Z,123.10
2017-12-19T03:47:31.977Z,116.15
2017-12-19T03:49:58.267Z,130.87
2017-12-19T03:52:26.228Z,98.95
2017-12-19T03:54:53.692Z,126.43
2017-12-19T03:57:19.957Z,119.78
2017-12-19T03:59:46.216Z,116.85
2017-12-19T04:02:12.474Z,106.18
2017-12-19T04:04:40.194Z,112.80
2017-12-19T04:07:06.409Z,124.30
2017-12-19T04:09:32.682Z,108.35
2017-12-19T04:11:58.921Z,125.15
2017-12-19T04:14:25.913Z,115.57
2017-12-19T04:16:52.148Z,104.40
2017-12-19T04:19:20.112Z,113.60
2017-12-19T04:21:46.408Z,118.55
2017-12-19T04:24:12.645Z,129.68
2017-12-19T04:26:38.913Z,124.28
2017-12-19T04:29:05.189Z,120.50
2017-12-19T04:31:32.173Z,112.72
2017-12-19T04:33:58.476Z,119.25
2017-12-19T04:36:24.792Z,117.37
2017-12-19T04:38:51.038Z,115.10
2017-12-19T04:41:17.269Z,124.85
2017-12-19T04:43:43.497Z,119.10
2017-12-19T04:46:09.711Z,115.05
2017-12-19T04:48:35.951Z,125.65
2017-12-19T04:51:02.217Z,107.35
2017-12-19T04:53:28.502Z,124.25
2017-12-19T04:55:54.818Z,118.78
2017-12-19T04:58:21.085Z,120.82
2017-12-19T05:00:47.328Z,100.80
2017-12-19T05:03:13.725Z,104.25
2017-12-19T05:05:40.684Z,104.45
2017-12-19T05:08:07.633Z,97.53
2017-12-19T05:10:33.870Z,106.05
2017-12-19T05:13:00.973Z,84.62
2017-12-19T05:15:27.198Z,97.80
2017-12-19T05:17:53.428Z,89.45
2017-12-19T05:20:19.685Z,89.47
2017-12-19T05:22:45.924Z,96.07
2017-12-19T05:25:12.145Z,111.00
2017-12-19T05:27:38.449Z,91.90
2017-12-19T05:30:11.622Z,98.28
2017-12-19T05:32:38.669Z,101.18
2017-12-19T05:35:05.034Z,109.60
2017-12-19T05:37:31.288Z,94.87
2017-12-19T05:39:57.517Z,107.82
2017-12-19T05:42:23.747Z,107.80
2017-12-19T05:44:50.001Z,106.63
2017-12-19T05:47:16.422Z,116.60
2017-12-19T05:49:42.669Z,99.60
2017-12-19T05:52:08.945Z,110.28
2017-12-19T05:54:35.238Z,121.15
2017-12-19T05:57:01.502Z,112.32
2017-12-19T05:59:27.862Z,115.37
2017-12-19T06:01:54.085Z,107.25
2017-12-19T06:04:20.337Z,142.90
2017-12-19T06:06:46.610Z,130.10
2017-12-19T06:09:12.841Z,144.40
2017-12-19T06:11:39.102Z,123.93
2017-12-19T06:14:05.337Z,137.27
2017-12-19T06:16:31.585Z,126.68
2017-12-19T06:18:57.818Z,119.70
2017-12-19T06:21:24.058Z,152.60
2017-12-19T06:23:51.195Z,149.05
2017-12-19T06:26:17.472Z,127.95
2017-12-19T06:28:43.820Z,137.18
2017-12-19T06:31:10.074Z,139.00
2017-12-19T06:33:37.793Z,127.75
2017-12-19T06:36:04.043Z,118.93
2017-12-19T06:38:30.353Z,130.68
2017-12-19T06:40:57.309Z,119.25
2017-12-19T06:43:23.573Z,114.68
2017-12-19T06:45:49.858Z,124.62
2017-12-19T06:48:16.096Z,116.35
2017-12-19T06:50:42.353Z,125.75
2017-12-19T06:53:09.381Z,126.72
2017-12-19T06:55:35.636Z,147.90
2017-12-19T06:58:01.870Z,145.45
2017-12-19T07:00:28.178Z,137.30
2017-12-19T07:02:55.150Z,131.50
2017-12-19T07:05:21.760Z,138.90
2017-12-19T07:07:48.088Z,149.32
2017-12-19T07:10:14.297Z,204.75
2017-12-19T07:12:40.570Z,175.60
2017-12-19T07:15:06.797Z,199.77
2017-12-19T07:17:33.078Z,217.18
2017-12-19T07:19:59.312Z,204.95
2017-12-19T07:22:26.916Z,203.88
2017-12-19T07:24:54.009Z,198.40
2017-12-19T07:27:20.264Z,210.52
2017-12-19T07:29:46.502Z,194.87
2017-12-19T07:32:12.771Z,217.02
2017-12-19T07:34:39.035Z,215.98
2017-12-19T07:37:06.061Z,169.93
2017-12-19T07:39:36.854Z,169.18
2017-12-19T07:42:03.147Z,160.55
2017-12-19T07:44:30.153Z,159.35
2017-12-19T07:46:56.370Z,157.50
2017-12-19T07:49:23.412Z,150.30
2017-12-19T07:51:49.657Z,161.30
2017-12-19T07:54:15.928Z,159.12
2017-12-19T07:56:42.941Z,178.62
2017-12-19T07:59:13.013Z,151.35
2017-12-19T08:01:39.282Z,186.35
2017-12-19T08:04:06.270Z,159.90
2017-12-19T08:06:32.521Z,156.55
2017-12-19T08:08:58.763Z,164.23
2017-12-19T08:11:24.991Z,167.30
2017-12-19T08:13:51.949Z,155.37
2017-12-19T08:16:24.257Z,165.27
2017-12-19T08:18:50.313Z,160.27
2017-12-19T08:21:16.405Z,158.27
2017-12-19T08:23:42.457Z,156.35
2017-12-19T08:26:08.513Z,162.70
2017-12-19T08:28:34.589Z,144.05
2017-12-19T08:31:00.897Z,171.23
2017-12-19T08:33:29.969Z,150.10
2017-12-19T08:35:56.942Z,139.73
2017-12-19T08:38:23.973Z,160.32
2017-12-19T08:40:50.053Z,163.12
2017-12-19T08:43:16.171Z,148.43
2017-12-19T08:45:42.549Z,140.05
2017-12-19T08:48:08.779Z,146.75
2017-12-19T08:50:41.501Z,136.43
2017-12-19T08:53:07.545Z,162.15
2017-12-19T08:55:33.589Z,188.37
2017-12-19T08:57:59.649Z,181.85
2017-12-19T09:00:25.709Z,175.50
2017-12-19T09:02:51.760Z,185.07
2017-12-19T09:05:18.014Z,170.87
2017-12-19T09:07:44.254Z,215.80
2017-12-19T09:10:14.277Z,195.70
2017-12-19T09:12:40.516Z,189.00
2017-12-19T09:15:06.767Z,171.15
2017-12-19T09:17:33.011Z,213.87
2017-12-19T09:20:00.002Z,241.95
2017-12-19T09:22:26.261Z,206.85
2017-12-19T09:24:53.256Z,200.57
2017-12-19T09:27:25.966Z,194.35
2017-12-19T09:29:52.021Z,224.73
2017-12-19T09:32:18.198Z,199.75
2017-12-19T09:34:44.421Z,193.35
2017-12-19T09:37:10.698Z,215.80
2017-12-19T09:39:37.717Z,201.93
2017-12-19T09:44:35.185Z,208.00
2017-12-19T09:47:01.406Z,197.80
2017-12-19T09:49:28.429Z,182.65
2017-12-19T09:51:54.680Z,204.50
2017-12-19T09:54:20.940Z,204.77
2017-12-19T09:56:47.225Z,215.15
2017-12-19T09:59:18.176Z,242.05
2017-12-19T10:01:44.430Z,183.45
2017-12-19T10:04:10.697Z,205.37
2017-12-19T10:06:37.010Z,172.55
2017-12-19T10:09:04.007Z,196.18
2017-12-19T10:11:30.280Z,175.93
2017-12-19T10:13:56.571Z,161.65
2017-12-19T10:16:28.103Z,173.65
2017-12-19T10:18:54.353Z,175.12
2017-12-19T10:21:20.605Z,184.32
2017-12-19T10:23:46.851Z,176.40
2017-12-19T10:26:13.080Z,172.27
2017-12-19T10:28:39.342Z,175.90
2017-12-19T10:31:05.617Z,176.55
2017-12-19T10:33:31.895Z,172.80
2017-12-19T10:36:02.114Z,181.37
2017-12-19T10:38:28.327Z,167.70
2017-12-19T10:40:54.582Z,183.93
2017-12-19T10:43:20.805Z,173.23
2017-12-19T10:45:47.218Z,171.40
2017-12-19T10:48:14.216Z,178.43
2017-12-19T10:50:41.193Z,150.85
2017-12-19T10:53:08.182Z,150.23
2017-12-19T10:55:37.725Z,147.13
2017-12-19T10:58:03.982Z,159.35
2017-12-19T11:00:30.229Z,176.82
2017-12-19T11:02:56.490Z,170.60
2017-12-19T11:05:22.730Z,153.07
2017-12-19T11:07:49.097Z,159.37
2017-12-19T11:10:15.359Z,143.90
2017-12-19T11:12:41.588Z,137.07
2017-12-19T11:15:12.119Z,150.62
2017-12-19T11:17:38.405Z,154.02
2017-12-19T11:20:04.626Z,138.12
2017-12-19T11:22:30.836Z,137.88
2017-12-19T11:24:57.098Z,145.55
2017-12-19T11:27:23.400Z,136.48
2017-12-19T11:29:49.626Z,130.60
2017-12-19T11:32:17.019Z,148.10
2017-12-19T11:34:47.941Z,135.55
2017-12-19T11:37:14.199Z,137.62
2017-12-19T11:39:40.462Z,162.40
2017-12-19T11:42:06.735Z,138.62
2017-12-19T11:44:32.997Z,173.20
2017-12-19T11:46:59.248Z,132.50
2017-12-19T11:49:26.248Z,118.47
2017-12-19T11:51:58.003Z,154.15
2017-12-19T11:54:24.237Z,128.12
2017-12-19T11:56:51.249Z,143.20
2017-12-19T11:59:17.511Z,132.05
2017-12-19T12:01:43.751Z,122.00
2017-12-19T12:04:10.016Z,112.00
2017-12-19T12:06:36.311Z,132.37
2017-12-19T12:09:07.380Z,123.85
2017-12-19T12:11:33.676Z,112.47
2017-12-19T12:13:59.936Z,106.93
2017-12-19T12:16:26.181Z,107.30
2017-12-19T12:18:52.409Z,104.95
2017-12-19T12:21:18.717Z,108.60
2017-12-19T12:23:45.714Z,104.95
2017-12-19T12:26:16.333Z,104.18
2017-12-19T12:28:42.749Z,103.62
2017-12-19T12:31:09.031Z,104.20
2017-12-19T12:33:35.333Z,97.70
2017-12-19T12:36:01.566Z,102.32
2017-12-19T12:38:27.786Z,109.68
2017-12-19T12:40:54.058Z,115.70
2017-12-19T12:43:20.311Z,105.90
2017-12-19T12:45:52.868Z,121.80
2017-12-19T12:48:18.944Z,95.75
2017-12-19T12:50:45.974Z,112.75
2017-12-19T12:53:12.986Z,103.07
2017-12-19T12:55:39.135Z,108.05
2017-12-19T12:58:05.489Z,103.03
2017-12-19T13:00:38.418Z,103.85
2017-12-19T13:03:05.485Z,91.72
2017-12-19T13:05:31.737Z,102.62
2017-12-19T13:07:58.754Z,95.87
2017-12-19T13:10:25.010Z,107.25
2017-12-19T13:12:51.266Z,104.03
2017-12-19T13:15:17.549Z,101.18
2017-12-19T13:17:47.576Z,107.22
2017-12-19T13:20:13.831Z,101.60
2017-12-19T13:22:40.118Z,100.57
2017-12-19T13:25:06.370Z,92.60
2017-12-19T13:27:33.772Z,101.18
2017-12-19T13:30:00.042Z,107.05
2017-12-19T13:32:26.294Z,95.10
2017-12-19T13:34:53.341Z,86.20
2017-12-19T13:37:21.921Z,89.07
2017-12-19T13:39:48.154Z,95.82
2017-12-19T13:42:14.433Z,93.07
2017-12-19T13:44:40.681Z,97.25
2017-12-19T13:47:07.670Z,92.30
2017-12-19T13:49:33.981Z,85.85
2017-12-19T13:52:00.286Z,86.85
2017-12-19T13:54:27.030Z,91.85
2017-12-19T13:56:53.252Z,93.80
2017-12-19T13:59:19.535Z,84.60
2017-12-19T14:01:46.074Z,105.55
2017-12-19T14:04:12.387Z,78.05
2017-12-19T14:06:38.641Z,83.37
2017-12-19T14:09:04.857Z,91.68
2017-12-19T14:11:31.904Z,81.20
2017-12-19T14:13:58.109Z,82.88
2017-12-19T14:16:24.374Z,94.03
2017-12-19T14:18:51.345Z,85.10
2017-12-19T14:21:17.658Z,109.22
2017-12-19T14:23:43.935Z,82.37
2017-12-19T14:26:10.213Z,100.10
2017-12-19T14:28:36.450Z,88.95
2017-12-19T14:31:02.713Z,96.05
2017-12-19T14:33:28.987Z,99.82
2017-12-19T14:35:55.271Z,92.97
2017-12-19T14:38:21.658Z,83.00
2017-12-19T14:40:47.993Z,83.28
2017-12-19T14:43:18.018Z,85.65
2017-12-19T14:45:45.326Z,100.62
2017-12-19T14:48:11.638Z,85.20
2017-12-19T14:50:38.748Z,89.72
2017-12-19T14:53:05.358Z,97.37
2017-12-19T14:55:31.759Z,101.80
2017-12-19T14:57:58.006Z,104.38
2017-12-19T15:00:24.313Z,83.87
2017-12-19T15:02:50.554Z,80.57
2017-12-19T15:05:16.842Z,78.50
2017-12-19T15:07:43.245Z,79.15
2017-12-19T15:10:09.576Z,91.07
2017-12-19T15:12:35.994Z,99.90
2017-12-19T15:15:02.350Z,83.05
2017-12-19T15:17:28.627Z,81.20
2017-12-19T15:19:54.890Z,83.25
2017-12-19T15:22:27.971Z,73.30
2017-12-19T15:24:54.097Z,77.70
2017-12-19T15:27:20.146Z,79.87
2017-12-19T15:29:46.222Z,82.45
2017-12-19T15:32:13.041Z,89.43
2017-12-19T15:34:39.197Z,80.15
2017-12-19T15:37:05.337Z,82.32
2017-12-19T15:39:33.110Z,75.82
2017-12-19T15:41:59.197Z,83.80
2017-12-19T15:44:26.072Z,81.22
2017-12-19T15:46:52.246Z,81.55
2017-12-19T15:49:18.325Z,73.07
2017-12-19T15:51:45.173Z,74.60
2017-12-19T15:54:11.501Z,81.28
2017-12-19T15:56:37.733Z,82.45
2017-12-19T15:59:03.978Z,75.32
2017-12-19T16:01:31.074Z,62.90
2017-12-19T16:03:57.305Z,79.90
2017-12-19T16:06:23.588Z,71.72
2017-12-19T16:08:49.961Z,77.80
2017-12-19T16:11:16.226Z,76.45
2017-12-19T16:13:42.445Z,65.47
2017-12-19T16:16:10.738Z,72.75
2017-12-19T16:18:37.923Z,74.32
2017-12-19T16:21:04.163Z,68.80
2017-12-19T16:23:30.401Z,67.07
2017-12-19T16:25:56.709Z,73.62
2017-12-19T16:28:23.050Z,69.35
2017-12-19T16:30:56.654Z,67.20
2017-12-19T16:33:22.946Z,77.35
2017-12-19T16:35:49.172Z,70.07
2017-12-19T16:38:15.502Z,73.70
2017-12-19T16:40:41.746Z,66.78
2017-12-19T16:43:08.114Z,68.65
2017-12-19T16:45:34.355Z,76.10
2017-12-19T16:48:02.634Z,64.07
2017-12-19T16:50:31.756Z,85.28
2017-12-19T16:52:58.156Z,69.40
2017-12-19T16:55:24.459Z,67.47
2017-12-19T16:57:52.568Z,69.95
2017-12-19T17:00:18.851Z,70.28
2017-12-19T17:02:45.141Z,74.30
2017-12-19T17:05:11.620Z,83.35
2017-12-19T17:07:41.020Z,76.80
2017-12-19T17:10:07.293Z,76.28
2017-12-19T17:12:33.529Z,64.32
2017-12-19T17:15:01.391Z,84.43
2017-12-19T17:17:27.524Z,79.32
2017-12-19T17:19:53.574Z,81.45
2017-12-19T17:22:19.817Z,98.05
2017-12-19T17:24:46.053Z,82.75
2017-12-19T17:27:15.681Z,88.87
2017-12-19T17:29:41.938Z,90.20
2017-12-19T17:32:08.215Z,90.53
2017-12-19T17:34:34.506Z,87.75
2017-12-19T17:37:01.561Z,83.43
2017-12-19T17:39:27.995Z,83.90
2017-12-19T17:41:54.277Z,91.50
2017-12-19T17:44:21.729Z,73.60
2017-12-19T17:46:50.506Z,81.03
2017-12-19T17:49:16.898Z,87.93
2017-12-19T17:51:43.936Z,82.12
2017-12-19T17:54:10.193Z,83.95
2017-12-19T17:56:36.486Z,82.40
2017-12-19T17:59:02.764Z,111.10
2017-12-19T18:01:29.095Z,84.53
2017-12-19T18:03:55.366Z,92.47
2017-12-19T18:06:28.019Z,83.60
2017-12-19T18:08:54.221Z,77.65
2017-12-19T18:11:20.464Z,72.20
2017-12-19T18:13:48.277Z,73.87
2017-12-19T18:16:14.484Z,71.93
2017-12-19T18:18:40.704Z,68.65
2017-12-19T18:21:07.898Z,74.43
2017-12-19T18:23:36.388Z,67.90
2017-12-19T18:26:02.794Z,72.55
2017-12-19T18:28:29.058Z,75.37
2017-12-19T18:30:55.681Z,67.22
2017-12-19T18:33:22.405Z,79.28
2017-12-19T18:35:48.818Z,70.28
2017-12-19T18:38:15.097Z,74.00
2017-12-19T18:40:46.959Z,72.07
2017-12-19T18:43:13.297Z,87.80
2017-12-19T18:45:39.605Z,68.97
2017-12-19T18:48:05.925Z,82.70
2017-12-19T18:50:32.994Z,91.12
2017-12-19T18:53:00.081Z,84.72
2017-12-19T18:55:27.202Z,73.15
2017-12-19T18:57:56.629Z,71.05
2017-12-19T19:00:22.928Z,80.18
2017-12-19T19:02:49.352Z,69.32
2017-12-19T19:05:16.210Z,82.28
2017-12-19T19:07:43.633Z,65.07
2017-12-19T19:10:09.951Z,79.82
2017-12-19T19:12:36.946Z,66.72
2017-12-19T19:15:03.242Z,63.83
2017-12-19T19:17:31.167Z,63.47
2017-12-19T19:19:58.393Z,62.88
2017-12-19T19:22:24.876Z,73.75
2017-12-19T19:24:52.794Z,64.95
2017-12-19T19:27:19.049Z,59.05
2017-12-19T19:29:46.005Z,74.35
2017-12-19T19:32:13.019Z,65.10
2017-12-19T19:34:41.395Z,60.22
2017-12-19T19:37:07.698Z,59.65
2017-12-19T19:39:34.102Z,63.70
2017-12-19T19:42:00.398Z,61.30
2017-12-19T19:44:26.872Z,48.67
2017-12-19T19:46:54.023Z,60.20
2017-12-19T19:49:24.448Z,59.60
2017-12-19T19:51:50.836Z,50.40
2017-12-19T19:54:17.866Z,54.85
2017-12-19T19:56:44.897Z,55.58
2017-12-19T19:59:11.217Z,49.50
2017-12-19T20:01:37.437Z,51.33
2017-12-19T20:04:03.698Z,51.17
2017-12-19T20:06:30.656Z,53.38
2017-12-19T20:08:58.370Z,49.15
2017-12-19T20:11:24.681Z,56.53
2017-12-19T20:13:52.120Z,56.40
2017-12-19T20:16:18.399Z,52.70
2017-12-19T20:18:44.667Z,49.22
2017-12-19T20:21:10.937Z,49.45
2017-12-19T20:23:37.184Z,53.50
2017-12-19T20:26:07.694Z,51.80
2017-12-19T20:28:34.711Z,52.65
2017-12-19T20:31:00.986Z,53.58
2017-12-19T20:33:27.282Z,50.40
2017-12-19T20:35:53.604Z,39.13
2017-12-19T20:38:19.861Z,42.75
2017-12-19T20:40:46.100Z,52.22
2017-12-19T20:43:12.371Z,62.30
2017-12-19T20:45:38.862Z,53.55
2017-12-19T20:48:05.205Z,53.72
2017-12-19T20:50:31.423Z,48.97
2017-12-19T20:52:58.445Z,47.55
2017-12-19T20:55:24.652Z,52.97
2017-12-19T20:57:50.976Z,47.85
2017-12-19T21:00:17.253Z,51.30
2017-12-19T21:02:44.210Z,52.45
2017-12-19T21:05:10.497Z,50.70
2017-12-19T21:07:44.144Z,49.22
2017-12-19T21:10:10.427Z,48.47
2017-12-19T21:12:36.830Z,50.47
2017-12-19T21:15:04.672Z,51.50
2017-12-19T21:17:30.914Z,51.35
2017-12-19T21:19:58.008Z,45.95
2017-12-19T21:22:24.296Z,42.80
2017-12-19T21:24:50.566Z,42.97
2017-12-19T21:27:18.903Z,49.47
2017-12-19T21:29:45.251Z,45.65
2017-12-19T21:32:11.509Z,47.22
2017-12-19T21:34:37.716Z,46.50
2017-12-19T21:37:05.395Z,51.80
2017-12-19T21:39:31.651Z,44.85
2017-12-19T21:41:58.245Z,46.75
2017-12-19T21:44:24.634Z,55.25
2017-12-19T21:46:50.917Z,45.00
2017-12-19T21:49:18.140Z,43.53
2017-12-19T21:51:44.588Z,55.33
2017-12-19T21:54:10.829Z,46.83
2017-12-19T21:56:37.807Z,44.50
2017-12-19T21:59:04.046Z,51.40
2017-12-19T22:01:30.338Z,43.85
2017-12-19T22:03:57.382Z,45.20
2017-12-19T22:06:23.640Z,46.42
2017-12-19T22:08:49.938Z,46.60
2017-12-19T22:11:16.983Z,43.35
2017-12-19T22:13:43.223Z,50.63
2017-12-19T22:16:11.354Z,45.35
2017-12-19T22:18:38.694Z,48.35
2017-12-19T22:21:05.013Z,48.72
2017-12-19T22:23:31.306Z,49.33
2017-12-19T22:25:57.786Z,41.33
2017-12-19T22:28:24.766Z,49.70
2017-12-19T22:30:51.015Z,53.15
2017-12-19T22:33:17.263Z,48.87
2017-12-19T22:35:43.647Z,48.05
2017-12-19T22:38:09.878Z,43.72
2017-12-19T22:40:36.115Z,42.33
2017-12-19T22:43:03.133Z,36.85
2017-12-19T22:45:29.393Z,35.08
2017-12-19T22:47:56.551Z,39.95
2017-12-19T22:50:22.868Z,32.78
2017-12-19T22:52:49.851Z,38.42
2017-12-19T22:55:16.110Z,37.25
2017-12-19T22:57:42.431Z,34.17
2017-12-19T23:00:09.432Z,40.40
2017-12-19T23:02:36.550Z,39.38
2017-12-19T23:05:02.821Z,46.28
2017-12-19T23:07:29.085Z,35.58
2017-12-19T23:09:55.360Z,38.13
2017-12-19T23:12:21.660Z,39.97
2017-12-19T23:14:47.913Z,35.08
2017-12-19T23:17:14.242Z,35.85
2017-12-19T23:19:40.622Z,38.95
2017-12-19T23:22:06.926Z,40.90
2017-12-19T23:24:33.286Z,38.58
2017-12-19T23:26:59.652Z,36.53
2017-12-19T23:29:25.990Z,41.20
2017-12-19T23:31:52.241Z,33.80
2017-12-19T23:34:19.208Z,47.15
2017-12-19T23:36:45.469Z,46.20
2017-12-19T23:39:11.767Z,38.97
2017-12-19T23:41:39.042Z,40.00
2017-12-19T23:44:05.296Z,39.10
2017-12-19T23:46:31.591Z,39.15
2017-12-19T23:48:58.833Z,33.30
2017-12-19T23:51:25.122Z,32.83
2017-12-19T23:53:51.532Z,34.25
2017-12-19T23:56:17.775Z,36.67
2017-12-19T23:58:44.062Z,41.35
